Terminal Aerodrome Forecast
Issued by NWS

Home | Current Version | Previous Version | Text Only | Print | Product List | Glossary On
Versions: 1 2 3 4 5 6 7 8 9 10 11 12 13 14 15 16 17 18 19 20
058
FTUS43 KMPX 242105 AAA
TAFAXN
TAF AMD
KAXN 242105Z 2421/2518 03008KT P6SM OVC015
     FM250000 03007KT P6SM OVC011
     FM250600 01012KT 3SM -SN OVC005
     FM251000 36010KT 2SM -SN OVC005
     FM251400 35012G22KT 5SM -SN OVC008=

USA.gov is the U.S. government's official web portal to all federal, state and local government web resources and services.